sensor_id;sensor_type;location;lat;lon;timestamp;temperature;humidity
25512;DHT22;13414;44.534;18.700;2022-11-14T00:02:35;8.40;99.90
25512;DHT22;13414;44.534;18.700;2022-11-14T00:05:21;8.30;99.90
25512;DHT22;13414;44.534;18.700;2022-11-14T00:08:09;8.40;99.90
25512;DHT22;13414;44.534;18.700;2022-11-14T00:10:58;8.40;99.90
25512;DHT22;13414;44.534;18.700;2022-11-14T00:13:44;8.40;99.90
25512;DHT22;13414;44.534;18.700;2022-11-14T00:16:29;8.40;99.90
25512;DHT22;13414;44.534;18.700;2022-11-14T00:19:15;8.50;99.90
25512;DHT22;13414;44.534;18.700;2022-11-14T00:22:01;8.40;99.90
25512;DHT22;13414;44.534;18.700;2022-11-14T00:24:48;8.40;99.90
25512;DHT22;13414;44.534;18.700;2022-11-14T00:27:34;8.40;99.90
25512;DHT22;13414;44.534;18.700;2022-11-14T00:30:20;8.30;99.90
25512;DHT22;13414;44.534;18.700;2022-11-14T00:33:05;8.30;99.90
25512;DHT22;13414;44.534;18.700;2022-11-14T00:35:51;8.20;99.90
25512;DHT22;13414;44.534;18.700;2022-11-14T00:38:37;8.10;99.90
25512;DHT22;13414;44.534;18.700;2022-11-14T00:41:24;8.10;99.90
25512;DHT22;13414;44.534;18.700;2022-11-14T00:44:10;8.10;99.90
25512;DHT22;13414;44.534;18.700;2022-11-14T00:46:56;8.00;99.90
25512;DHT22;13414;44.534;18.700;2022-11-14T00:49:41;8.00;99.90
25512;DHT22;13414;44.534;18.700;2022-11-14T00:52:27;8.00;99.90
25512;DHT22;13414;44.534;18.700;2022-11-14T00:55:12;7.90;99.90
25512;DHT22;13414;44.534;18.700;2022-11-14T00:57:59;7.80;99.90
25512;DHT22;13414;44.534;18.700;2022-11-14T01:00:46;7.80;99.90
25512;DHT22;13414;44.534;18.700;2022-11-14T01:03:31;7.70;99.90
25512;DHT22;13414;44.534;18.700;2022-11-14T01:06:18;7.70;99.90
25512;DHT22;13414;44.534;18.700;2022-11-14T01:09:04;7.70;99.90
25512;DHT22;13414;44.534;18.700;2022-11-14T01:11:50;7.80;99.90
25512;DHT22;13414;44.534;18.700;2022-11-14T01:14:37;7.80;99.90
25512;DHT22;13414;44.534;18.700;2022-11-14T01:17:23;7.70;99.90
25512;DHT22;13414;44.534;18.700;2022-11-14T01:22:58;7.60;99.90
25512;DHT22;13414;44.534;18.700;2022-11-14T01:25:44;7.60;99.90
25512;DHT22;13414;44.534;18.700;2022-11-14T01:28:30;7.60;99.90
25512;DHT22;13414;44.534;18.700;2022-11-14T01:31:18;7.60;99.90
25512;DHT22;13414;44.534;18.700;2022-11-14T01:34:04;7.50;99.90
25512;DHT22;13414;44.534;18.700;2022-11-14T01:36:49;7.50;99.90
25512;DHT22;13414;44.534;18.700;2022-11-14T01:39:35;7.50;99.90
25512;DHT22;13414;44.534;18.700;2022-11-14T01:42:21;7.40;99.90
25512;DHT22;13414;44.534;18.700;2022-11-14T01:48:22;7.30;99.90
25512;DHT22;13414;44.534;18.700;2022-11-14T01:51:15;7.40;99.90
25512;DHT22;13414;44.534;18.700;2022-11-14T01:54:05;7.30;99.90
25512;DHT22;13414;44.534;18.700;2022-11-14T01:56:52;7.30;99.90
25512;DHT22;13414;44.534;18.700;2022-11-14T01:59:40;7.30;99.90
25512;DHT22;13414;44.534;18.700;2022-11-14T02:02:26;7.30;99.90
25512;DHT22;13414;44.534;18.700;2022-11-14T02:05:13;7.30;99.90
25512;DHT22;13414;44.534;18.700;2022-11-14T02:08:00;7.20;99.90
25512;DHT22;13414;44.534;18.700;2022-11-14T02:10:45;7.20;99.90
25512;DHT22;13414;44.534;18.700;2022-11-14T02:13:31;7.10;99.90
25512;DHT22;13414;44.534;18.700;2022-11-14T02:16:16;7.20;99.90
25512;DHT22;13414;44.534;18.700;2022-11-14T02:19:02;7.20;99.90
25512;DHT22;13414;44.534;18.700;2022-11-14T02:21:51;7.10;99.90
25512;DHT22;13414;44.534;18.700;2022-11-14T02:24:37;7.10;99.90
25512;DHT22;13414;44.534;18.700;2022-11-14T02:27:22;7.00;99.90
25512;DHT22;13414;44.534;18.700;2022-11-14T02:30:09;7.00;99.90
25512;DHT22;13414;44.534;18.700;2022-11-14T02:32:55;7.00;99.90
25512;DHT22;13414;44.534;18.700;2022-11-14T02:35:41;6.90;99.90
25512;DHT22;13414;44.534;18.700;2022-11-14T02:38:28;6.90;99.90
25512;DHT22;13414;44.534;18.700;2022-11-14T02:41:14;6.90;99.90
25512;DHT22;13414;44.534;18.700;2022-11-14T02:43:59;6.90;99.90
25512;DHT22;13414;44.534;18.700;2022-11-14T02:46:45;6.80;99.90
25512;DHT22;13414;44.534;18.700;2022-11-14T02:49:31;6.80;99.90
25512;DHT22;13414;44.534;18.700;2022-11-14T02:52:16;6.70;99.90
25512;DHT22;13414;44.534;18.700;2022-11-14T02:55:05;6.50;99.90
25512;DHT22;13414;44.534;18.700;2022-11-14T02:57:51;6.50;99.90
25512;DHT22;13414;44.534;18.700;2022-11-14T03:00:36;6.50;99.90
25512;DHT22;13414;44.534;18.700;2022-11-14T03:03:22;6.40;99.90
25512;DHT22;13414;44.534;18.700;2022-11-14T03:06:07;6.40;99.90
25512;DHT22;13414;44.534;18.700;2022-11-14T03:08:53;6.30;99.90
25512;DHT22;13414;44.534;18.700;2022-11-14T03:11:40;6.40;99.90
25512;DHT22;13414;44.534;18.700;2022-11-14T03:14:26;6.50;99.90
25512;DHT22;13414;44.534;18.700;2022-11-14T03:17:11;6.60;99.90
25512;DHT22;13414;44.534;18.700;2022-11-14T03:19:57;6.60;99.90
25512;DHT22;13414;44.534;18.700;2022-11-14T03:22:42;6.60;99.90
25512;DHT22;13414;44.534;18.700;2022-11-14T03:25:28;6.60;99.90
25512;DHT22;13414;44.534;18.700;2022-11-14T03:28:15;6.50;99.90
25512;DHT22;13414;44.534;18.700;2022-11-14T03:31:01;6.50;99.90
25512;DHT22;13414;44.534;18.700;2022-11-14T03:33:46;6.60;99.90
25512;DHT22;13414;44.534;18.700;2022-11-14T03:36:33;6.60;99.90
25512;DHT22;13414;44.534;18.700;2022-11-14T03:39:19;6.60;99.90
25512;DHT22;13414;44.534;18.700;2022-11-14T03:42:05;6.50;99.90
25512;DHT22;13414;44.534;18.700;2022-11-14T03:44:52;6.50;99.90
25512;DHT22;13414;44.534;18.700;2022-11-14T03:47:38;6.60;99.90
25512;DHT22;13414;44.534;18.700;2022-11-14T03:50:23;6.60;99.90
25512;DHT22;13414;44.534;18.700;2022-11-14T03:53:09;6.60;99.90
25512;DHT22;13414;44.534;18.700;2022-11-14T03:55:55;6.70;99.90
25512;DHT22;13414;44.534;18.700;2022-11-14T03:58:41;6.60;99.90
25512;DHT22;13414;44.534;18.700;2022-11-14T04:01:28;6.60;99.90
25512;DHT22;13414;44.534;18.700;2022-11-14T04:04:14;6.60;99.90
25512;DHT22;13414;44.534;18.700;2022-11-14T04:06:59;6.60;99.90
25512;DHT22;13414;44.534;18.700;2022-11-14T04:09:45;6.60;99.90
25512;DHT22;13414;44.534;18.700;2022-11-14T04:12:30;6.60;99.90
25512;DHT22;13414;44.534;18.700;2022-11-14T04:15:16;6.60;99.90
25512;DHT22;13414;44.534;18.700;2022-11-14T04:18:03;6.50;99.90
25512;DHT22;13414;44.534;18.700;2022-11-14T04:20:49;6.60;99.90
25512;DHT22;13414;44.534;18.700;2022-11-14T04:23:35;6.60;99.90
25512;DHT22;13414;44.534;18.700;2022-11-14T04:26:21;6.70;99.90
25512;DHT22;13414;44.534;18.700;2022-11-14T04:29:07;6.70;99.90
25512;DHT22;13414;44.534;18.700;2022-11-14T04:31:53;6.70;99.90
25512;DHT22;13414;44.534;18.700;2022-11-14T04:34:40;6.60;99.90
25512;DHT22;13414;44.534;18.700;2022-11-14T04:37:26;6.60;99.90
25512;DHT22;13414;44.534;18.700;2022-11-14T04:40:11;6.60;99.90
25512;DHT22;13414;44.534;18.700;2022-11-14T04:42:58;6.60;99.90
25512;DHT22;13414;44.534;18.700;2022-11-14T04:45:44;6.60;99.90
25512;DHT22;13414;44.534;18.700;2022-11-14T04:48:30;6.50;99.90
25512;DHT22;13414;44.534;18.700;2022-11-14T04:51:17;6.50;99.90
25512;DHT22;13414;44.534;18.700;2022-11-14T04:54:02;6.50;99.90
25512;DHT22;13414;44.534;18.700;2022-11-14T04:56:48;6.50;99.90
25512;DHT22;13414;44.534;18.700;2022-11-14T04:59:34;6.50;99.90
25512;DHT22;13414;44.534;18.700;2022-11-14T05:02:21;6.50;99.90
25512;DHT22;13414;44.534;18.700;2022-11-14T05:05:07;6.50;99.90
25512;DHT22;13414;44.534;18.700;2022-11-14T05:07:54;6.40;99.90
25512;DHT22;13414;44.534;18.700;2022-11-14T05:10:41;6.40;99.90
25512;DHT22;13414;44.534;18.700;2022-11-14T05:13:27;6.50;99.90
25512;DHT22;13414;44.534;18.700;2022-11-14T05:16:13;6.50;99.90
25512;DHT22;13414;44.534;18.700;2022-11-14T05:18:59;6.40;99.90
25512;DHT22;13414;44.534;18.700;2022-11-14T05:21:45;6.50;99.90
25512;DHT22;13414;44.534;18.700;2022-11-14T05:24:32;6.50;99.90
25512;DHT22;13414;44.534;18.700;2022-11-14T05:27:18;6.50;99.90
25512;DHT22;13414;44.534;18.700;2022-11-14T05:30:04;6.50;99.90
25512;DHT22;13414;44.534;18.700;2022-11-14T05:32:50;6.40;99.90
25512;DHT22;13414;44.534;18.700;2022-11-14T05:35:36;6.40;99.90
25512;DHT22;13414;44.534;18.700;2022-11-14T05:38:21;6.40;99.90
25512;DHT22;13414;44.534;18.700;2022-11-14T05:41:09;6.50;99.90
25512;DHT22;13414;44.534;18.700;2022-11-14T05:43:55;6.60;99.90
25512;DHT22;13414;44.534;18.700;2022-11-14T05:46:41;6.60;99.90
25512;DHT22;13414;44.534;18.700;2022-11-14T05:49:26;6.70;99.90
25512;DHT22;13414;44.534;18.700;2022-11-14T05:52:12;6.70;99.90
25512;DHT22;13414;44.534;18.700;2022-11-14T05:54:58;6.70;99.90
25512;DHT22;13414;44.534;18.700;2022-11-14T05:57:45;6.70;99.90
25512;DHT22;13414;44.534;18.700;2022-11-14T06:00:31;6.80;99.90
25512;DHT22;13414;44.534;18.700;2022-11-14T06:03:16;6.90;99.90
25512;DHT22;13414;44.534;18.700;2022-11-14T06:06:02;7.00;99.90
25512;DHT22;13414;44.534;18.700;2022-11-14T06:08:49;6.80;99.90
25512;DHT22;13414;44.534;18.700;2022-11-14T06:11:34;6.80;99.90
25512;DHT22;13414;44.534;18.700;2022-11-14T06:14:21;6.70;99.90
25512;DHT22;13414;44.534;18.700;2022-11-14T06:17:07;6.70;99.90
25512;DHT22;13414;44.534;18.700;2022-11-14T06:19:52;6.60;99.90
25512;DHT22;13414;44.534;18.700;2022-11-14T06:22:38;6.60;99.90
25512;DHT22;13414;44.534;18.700;2022-11-14T06:25:24;6.60;99.90
25512;DHT22;13414;44.534;18.700;2022-11-14T06:28:09;6.70;99.90
25512;DHT22;13414;44.534;18.700;2022-11-14T06:30:57;6.70;99.90
25512;DHT22;13414;44.534;18.700;2022-11-14T06:33:43;6.70;99.90
25512;DHT22;13414;44.534;18.700;2022-11-14T06:36:30;6.80;99.90
25512;DHT22;13414;44.534;18.700;2022-11-14T06:39:15;6.70;99.90
25512;DHT22;13414;44.534;18.700;2022-11-14T06:42:01;6.70;99.90
25512;DHT22;13414;44.534;18.700;2022-11-14T06:44:46;6.80;99.90
25512;DHT22;13414;44.534;18.700;2022-11-14T06:47:33;6.80;99.90
25512;DHT22;13414;44.534;18.700;2022-11-14T06:50:18;6.90;99.90
25512;DHT22;13414;44.534;18.700;2022-11-14T06:53:04;6.80;99.90
25512;DHT22;13414;44.534;18.700;2022-11-14T06:55:54;6.90;99.90
25512;DHT22;13414;44.534;18.700;2022-11-14T06:58:40;7.00;99.90
25512;DHT22;13414;44.534;18.700;2022-11-14T07:01:26;7.10;99.90
25512;DHT22;13414;44.534;18.700;2022-11-14T07:04:13;7.10;99.90
25512;DHT22;13414;44.534;18.700;2022-11-14T07:06:59;7.10;99.90
25512;DHT22;13414;44.534;18.700;2022-11-14T07:09:44;7.20;99.90
25512;DHT22;13414;44.534;18.700;2022-11-14T07:12:30;7.40;99.90
25512;DHT22;13414;44.534;18.700;2022-11-14T07:15:17;7.40;99.90
25512;DHT22;13414;44.534;18.700;2022-11-14T07:18:03;7.50;99.90
25512;DHT22;13414;44.534;18.700;2022-11-14T07:20:50;7.60;99.90
25512;DHT22;13414;44.534;18.700;2022-11-14T07:23:41;7.60;99.90
25512;DHT22;13414;44.534;18.700;2022-11-14T07:26:26;7.70;99.90
25512;DHT22;13414;44.534;18.700;2022-11-14T07:29:12;7.40;99.90
25512;DHT22;13414;44.534;18.700;2022-11-14T07:31:57;7.50;99.90
25512;DHT22;13414;44.534;18.700;2022-11-14T07:34:43;7.70;99.90
25512;DHT22;13414;44.534;18.700;2022-11-14T07:37:30;7.70;99.90
25512;DHT22;13414;44.534;18.700;2022-11-14T07:40:16;7.70;99.90
25512;DHT22;13414;44.534;18.700;2022-11-14T07:43:02;7.80;99.90
25512;DHT22;13414;44.534;18.700;2022-11-14T07:45:48;7.90;99.90
25512;DHT22;13414;44.534;18.700;2022-11-14T07:48:33;7.90;99.90
25512;DHT22;13414;44.534;18.700;2022-11-14T07:51:19;8.10;99.90
25512;DHT22;13414;44.534;18.700;2022-11-14T07:54:08;8.10;99.90
25512;DHT22;13414;44.534;18.700;2022-11-14T07:56:54;8.30;99.90
25512;DHT22;13414;44.534;18.700;2022-11-14T07:59:40;8.30;99.90
25512;DHT22;13414;44.534;18.700;2022-11-14T08:02:25;8.50;99.90
25512;DHT22;13414;44.534;18.700;2022-11-14T08:05:11;8.50;99.90
25512;DHT22;13414;44.534;18.700;2022-11-14T08:07:57;8.50;99.90
25512;DHT22;13414;44.534;18.700;2022-11-14T08:10:44;8.70;99.90
25512;DHT22;13414;44.534;18.700;2022-11-14T08:13:30;8.80;99.90
25512;DHT22;13414;44.534;18.700;2022-11-14T08:16:16;8.90;99.90
25512;DHT22;13414;44.534;18.700;2022-11-14T08:19:01;8.70;99.90
25512;DHT22;13414;44.534;18.700;2022-11-14T08:21:47;8.60;99.90
25512;DHT22;13414;44.534;18.700;2022-11-14T08:24:33;8.70;99.90
25512;DHT22;13414;44.534;18.700;2022-11-14T08:27:19;8.80;99.90
25512;DHT22;13414;44.534;18.700;2022-11-14T08:30:06;9.00;99.90
25512;DHT22;13414;44.534;18.700;2022-11-14T08:32:51;9.20;99.90
25512;DHT22;13414;44.534;18.700;2022-11-14T08:35:37;9.40;99.90
25512;DHT22;13414;44.534;18.700;2022-11-14T08:38:23;9.70;99.90
25512;DHT22;13414;44.534;18.700;2022-11-14T08:41:08;9.90;99.90
25512;DHT22;13414;44.534;18.700;2022-11-14T08:43:55;9.80;99.90
25512;DHT22;13414;44.534;18.700;2022-11-14T08:46:41;9.80;99.90
25512;DHT22;13414;44.534;18.700;2022-11-14T08:49:27;9.70;99.90
25512;DHT22;13414;44.534;18.700;2022-11-14T08:52:12;9.70;99.90
25512;DHT22;13414;44.534;18.700;2022-11-14T08:54:58;9.50;99.90
25512;DHT22;13414;44.534;18.700;2022-11-14T08:57:43;9.30;99.90
25512;DHT22;13414;44.534;18.700;2022-11-14T09:00:30;9.30;99.90
25512;DHT22;13414;44.534;18.700;2022-11-14T09:03:16;9.30;99.90
25512;DHT22;13414;44.534;18.700;2022-11-14T09:06:02;9.40;99.90
25512;DHT22;13414;44.534;18.700;2022-11-14T09:08:48;9.60;99.90
25512;DHT22;13414;44.534;18.700;2022-11-14T09:11:33;9.80;99.90
25512;DHT22;13414;44.534;18.700;2022-11-14T09:14:19;10.10;99.90
25512;DHT22;13414;44.534;18.700;2022-11-14T09:17:06;10.30;99.90
25512;DHT22;13414;44.534;18.700;2022-11-14T09:19:51;10.60;99.90
25512;DHT22;13414;44.534;18.700;2022-11-14T09:22:39;10.80;99.90
25512;DHT22;13414;44.534;18.700;2022-11-14T09:25:24;10.90;99.90
25512;DHT22;13414;44.534;18.700;2022-11-14T09:28:10;11.10;99.90
25512;DHT22;13414;44.534;18.700;2022-11-14T09:30:58;11.10;99.90
25512;DHT22;13414;44.534;18.700;2022-11-14T09:33:45;11.00;99.90
25512;DHT22;13414;44.534;18.700;2022-11-14T09:36:31;11.00;99.90
25512;DHT22;13414;44.534;18.700;2022-11-14T09:39:16;11.20;99.90
25512;DHT22;13414;44.534;18.700;2022-11-14T09:42:05;11.50;99.90
25512;DHT22;13414;44.534;18.700;2022-11-14T09:44:55;11.60;99.90
25512;DHT22;13414;44.534;18.700;2022-11-14T09:47:43;11.80;99.90
25512;DHT22;13414;44.534;18.700;2022-11-14T09:50:31;12.00;99.90
25512;DHT22;13414;44.534;18.700;2022-11-14T09:53:19;11.90;99.90
25512;DHT22;13414;44.534;18.700;2022-11-14T09:56:08;11.60;99.90
25512;DHT22;13414;44.534;18.700;2022-11-14T09:58:56;11.40;99.90
25512;DHT22;13414;44.534;18.700;2022-11-14T10:01:43;11.30;99.90
25512;DHT22;13414;44.534;18.700;2022-11-14T10:07:34;11.10;99.90
25512;DHT22;13414;44.534;18.700;2022-11-14T10:10:25;11.10;99.90
25512;DHT22;13414;44.534;18.700;2022-11-14T10:13:19;11.10;99.90
25512;DHT22;13414;44.534;18.700;2022-11-14T10:16:10;11.30;99.90
25512;DHT22;13414;44.534;18.700;2022-11-14T10:19:02;11.50;99.90
25512;DHT22;13414;44.534;18.700;2022-11-14T10:22:01;11.60;99.90
25512;DHT22;13414;44.534;18.700;2022-11-14T10:25:06;11.80;99.90
25512;DHT22;13414;44.534;18.700;2022-11-14T10:28:02;12.00;99.90
25512;DHT22;13414;44.534;18.700;2022-11-14T10:30:51;12.00;99.90
25512;DHT22;13414;44.534;18.700;2022-11-14T10:33:41;12.00;99.90
25512;DHT22;13414;44.534;18.700;2022-11-14T10:36:35;12.10;99.90
25512;DHT22;13414;44.534;18.700;2022-11-14T10:39:28;12.20;99.90
25512;DHT22;13414;44.534;18.700;2022-11-14T10:42:18;12.40;99.90
25512;DHT22;13414;44.534;18.700;2022-11-14T10:45:06;12.50;99.90
25512;DHT22;13414;44.534;18.700;2022-11-14T10:47:53;12.60;99.90
25512;DHT22;13414;44.534;18.700;2022-11-14T10:50:42;12.60;99.90
25512;DHT22;13414;44.534;18.700;2022-11-14T10:53:34;12.70;99.90
25512;DHT22;13414;44.534;18.700;2022-11-14T10:56:22;12.70;99.90
25512;DHT22;13414;44.534;18.700;2022-11-14T10:59:09;12.50;99.90
25512;DHT22;13414;44.534;18.700;2022-11-14T11:01:56;12.60;99.90
25512;DHT22;13414;44.534;18.700;2022-11-14T11:04:42;12.60;99.90
25512;DHT22;13414;44.534;18.700;2022-11-14T11:07:28;12.70;99.90
25512;DHT22;13414;44.534;18.700;2022-11-14T11:10:31;12.80;99.90
25512;DHT22;13414;44.534;18.700;2022-11-14T11:13:32;12.90;99.90
25512;DHT22;13414;44.534;18.700;2022-11-14T11:16:20;12.90;99.90
25512;DHT22;13414;44.534;18.700;2022-11-14T11:19:21;12.90;99.90
25512;DHT22;13414;44.534;18.700;2022-11-14T11:22:22;13.00;99.90
25512;DHT22;13414;44.534;18.700;2022-11-14T11:25:21;13.10;99.90
25512;DHT22;13414;44.534;18.700;2022-11-14T11:28:10;13.10;99.90
25512;DHT22;13414;44.534;18.700;2022-11-14T11:30:56;13.30;99.90
25512;DHT22;13414;44.534;18.700;2022-11-14T11:33:44;13.50;99.90
25512;DHT22;13414;44.534;18.700;2022-11-14T11:36:29;13.40;99.90
25512;DHT22;13414;44.534;18.700;2022-11-14T11:39:22;13.40;99.90
25512;DHT22;13414;44.534;18.700;2022-11-14T11:42:11;13.40;99.90
25512;DHT22;13414;44.534;18.700;2022-11-14T11:45:01;13.40;99.90
25512;DHT22;13414;44.534;18.700;2022-11-14T11:47:50;13.40;99.90
25512;DHT22;13414;44.534;18.700;2022-11-14T11:50:40;13.30;99.90
25512;DHT22;13414;44.534;18.700;2022-11-14T11:53:27;13.30;99.90
25512;DHT22;13414;44.534;18.700;2022-11-14T11:56:14;13.30;99.90
25512;DHT22;13414;44.534;18.700;2022-11-14T11:59:04;13.30;99.90
25512;DHT22;13414;44.534;18.700;2022-11-14T12:01:53;13.50;99.90
25512;DHT22;13414;44.534;18.700;2022-11-14T12:04:39;13.70;99.90
25512;DHT22;13414;44.534;18.700;2022-11-14T12:07:30;13.90;99.90
25512;DHT22;13414;44.534;18.700;2022-11-14T12:10:19;14.00;99.90
25512;DHT22;13414;44.534;18.700;2022-11-14T12:16:22;14.40;99.90
25512;DHT22;13414;44.534;18.700;2022-11-14T12:19:14;14.80;99.90
25512;DHT22;13414;44.534;18.700;2022-11-14T12:22:22;15.20;1.00
25512;DHT22;13414;44.534;18.700;2022-11-14T12:25:20;15.40;99.90
25512;DHT22;13414;44.534;18.700;2022-11-14T12:28:14;15.60;99.90
25512;DHT22;13414;44.534;18.700;2022-11-14T12:31:04;15.60;99.90
25512;DHT22;13414;44.534;18.700;2022-11-14T12:33:52;15.60;1.00
25512;DHT22;13414;44.534;18.700;2022-11-14T12:36:42;15.50;99.90
25512;DHT22;13414;44.534;18.700;2022-11-14T12:39:29;15.50;1.00
25512;DHT22;13414;44.534;18.700;2022-11-14T12:42:18;15.40;1.00
25512;DHT22;13414;44.534;18.700;2022-11-14T12:45:13;15.40;99.90
25512;DHT22;13414;44.534;18.700;2022-11-14T12:48:20;15.40;1.00
25512;DHT22;13414;44.534;18.700;2022-11-14T12:57:13;14.90;1.00
25512;DHT22;13414;44.534;18.700;2022-11-14T13:00:23;14.80;99.90
25512;DHT22;13414;44.534;18.700;2022-11-14T13:03:16;14.60;1.00
25512;DHT22;13414;44.534;18.700;2022-11-14T13:06:06;14.60;74.80
25512;DHT22;13414;44.534;18.700;2022-11-14T13:09:04;14.50;99.90
25512;DHT22;13414;44.534;18.700;2022-11-14T13:11:53;14.50;99.90
25512;DHT22;13414;44.534;18.700;2022-11-14T13:14:56;14.60;99.90
25512;DHT22;13414;44.534;18.700;2022-11-14T13:18:07;14.60;91.30
25512;DHT22;13414;44.534;18.700;2022-11-14T13:21:16;14.60;99.90
25512;DHT22;13414;44.534;18.700;2022-11-14T13:24:20;14.60;99.90
25512;DHT22;13414;44.534;18.700;2022-11-14T13:30:06;14.80;99.90
25512;DHT22;13414;44.534;18.700;2022-11-14T13:32:52;14.90;1.00
25512;DHT22;13414;44.534;18.700;2022-11-14T13:35:47;14.90;7.60
25512;DHT22;13414;44.534;18.700;2022-11-14T13:38:45;14.90;1.00
25512;DHT22;13414;44.534;18.700;2022-11-14T13:51:02;14.60;1.00
25512;DHT22;13414;44.534;18.700;2022-11-14T13:53:49;14.60;99.90
25512;DHT22;13414;44.534;18.700;2022-11-14T14:02:44;14.60;1.00
25512;DHT22;13414;44.534;18.700;2022-11-14T14:05:39;14.60;99.90
25512;DHT22;13414;44.534;18.700;2022-11-14T14:08:34;14.60;99.90
25512;DHT22;13414;44.534;18.700;2022-11-14T14:11:48;14.60;99.90
25512;DHT22;13414;44.534;18.700;2022-11-14T14:15:00;14.50;99.90
25512;DHT22;13414;44.534;18.700;2022-11-14T14:17:59;14.40;99.90
25512;DHT22;13414;44.534;18.700;2022-11-14T14:20:53;14.40;99.90
25512;DHT22;13414;44.534;18.700;2022-11-14T14:23:48;14.40;99.90
25512;DHT22;13414;44.534;18.700;2022-11-14T14:26:50;14.40;99.90
25512;DHT22;13414;44.534;18.700;2022-11-14T14:29:44;14.40;99.90
25512;DHT22;13414;44.534;18.700;2022-11-14T14:32:32;14.40;99.90
25512;DHT22;13414;44.534;18.700;2022-11-14T14:35:23;14.50;99.90
25512;DHT22;13414;44.534;18.700;2022-11-14T14:38:20;14.50;99.90
25512;DHT22;13414;44.534;18.700;2022-11-14T14:41:06;14.40;99.90
25512;DHT22;13414;44.534;18.700;2022-11-14T14:43:54;14.40;99.90
25512;DHT22;13414;44.534;18.700;2022-11-14T14:46:42;14.20;99.90
25512;DHT22;13414;44.534;18.700;2022-11-14T14:49:33;14.10;99.90
25512;DHT22;13414;44.534;18.700;2022-11-14T14:52:24;14.00;99.90
25512;DHT22;13414;44.534;18.700;2022-11-14T14:55:23;13.90;99.90
25512;DHT22;13414;44.534;18.700;2022-11-14T14:58:14;13.70;99.90
25512;DHT22;13414;44.534;18.700;2022-11-14T15:01:02;13.60;99.90
25512;DHT22;13414;44.534;18.700;2022-11-14T15:03:54;13.40;99.90
25512;DHT22;13414;44.534;18.700;2022-11-14T15:06:44;13.30;99.90
25512;DHT22;13414;44.534;18.700;2022-11-14T15:09:31;13.20;99.90
25512;DHT22;13414;44.534;18.700;2022-11-14T15:12:17;13.10;99.90
25512;DHT22;13414;44.534;18.700;2022-11-14T15:15:07;13.00;99.90
25512;DHT22;13414;44.534;18.700;2022-11-14T15:18:06;12.90;99.90
25512;DHT22;13414;44.534;18.700;2022-11-14T15:21:11;12.90;99.90
25512;DHT22;13414;44.534;18.700;2022-11-14T15:24:01;12.80;99.90
25512;DHT22;13414;44.534;18.700;2022-11-14T15:26:49;12.70;99.90
25512;DHT22;13414;44.534;18.700;2022-11-14T15:29:35;12.70;99.90
25512;DHT22;13414;44.534;18.700;2022-11-14T15:32:30;12.70;99.90
25512;DHT22;13414;44.534;18.700;2022-11-14T15:35:25;12.70;99.90
25512;DHT22;13414;44.534;18.700;2022-11-14T15:38:21;12.70;99.90
25512;DHT22;13414;44.534;18.700;2022-11-14T15:41:22;12.80;99.90
25512;DHT22;13414;44.534;18.700;2022-11-14T15:44:28;12.80;99.90
25512;DHT22;13414;44.534;18.700;2022-11-14T15:47:20;12.80;99.90
25512;DHT22;13414;44.534;18.700;2022-11-14T15:50:23;12.80;99.90
25512;DHT22;13414;44.534;18.700;2022-11-14T15:53:20;12.80;99.90
25512;DHT22;13414;44.534;18.700;2022-11-14T15:56:10;12.80;99.90
25512;DHT22;13414;44.534;18.700;2022-11-14T15:58:57;12.80;99.90
25512;DHT22;13414;44.534;18.700;2022-11-14T16:01:45;12.80;99.90
25512;DHT22;13414;44.534;18.700;2022-11-14T16:04:32;12.80;99.90
25512;DHT22;13414;44.534;18.700;2022-11-14T16:07:20;12.80;99.90
25512;DHT22;13414;44.534;18.700;2022-11-14T16:10:08;12.80;99.90
25512;DHT22;13414;44.534;18.700;2022-11-14T16:12:57;12.80;99.90
25512;DHT22;13414;44.534;18.700;2022-11-14T16:15:45;12.80;99.90
25512;DHT22;13414;44.534;18.700;2022-11-14T16:18:31;12.80;99.90
25512;DHT22;13414;44.534;18.700;2022-11-14T16:21:17;12.80;99.90
25512;DHT22;13414;44.534;18.700;2022-11-14T16:24:04;12.70;99.90
25512;DHT22;13414;44.534;18.700;2022-11-14T16:26:49;12.70;99.90
25512;DHT22;13414;44.534;18.700;2022-11-14T16:29:35;12.70;99.90
25512;DHT22;13414;44.534;18.700;2022-11-14T16:32:22;12.60;99.90
25512;DHT22;13414;44.534;18.700;2022-11-14T16:35:12;12.60;99.90
25512;DHT22;13414;44.534;18.700;2022-11-14T16:37:58;12.60;99.90
25512;DHT22;13414;44.534;18.700;2022-11-14T16:40:43;12.60;99.90
25512;DHT22;13414;44.534;18.700;2022-11-14T16:43:29;12.50;99.90
25512;DHT22;13414;44.534;18.700;2022-11-14T16:46:15;12.40;99.90
25512;DHT22;13414;44.534;18.700;2022-11-14T16:49:02;12.40;99.90
25512;DHT22;13414;44.534;18.700;2022-11-14T16:51:49;12.40;99.90
25512;DHT22;13414;44.534;18.700;2022-11-14T16:54:35;12.30;99.90
25512;DHT22;13414;44.534;18.700;2022-11-14T16:57:21;12.20;99.90
25512;DHT22;13414;44.534;18.700;2022-11-14T17:00:09;12.20;99.90
25512;DHT22;13414;44.534;18.700;2022-11-14T17:02:56;12.10;99.90
25512;DHT22;13414;44.534;18.700;2022-11-14T17:05:44;12.00;99.90
25512;DHT22;13414;44.534;18.700;2022-11-14T17:08:30;11.90;99.90
25512;DHT22;13414;44.534;18.700;2022-11-14T17:11:16;11.70;99.90
25512;DHT22;13414;44.534;18.700;2022-11-14T17:14:01;11.60;99.90
25512;DHT22;13414;44.534;18.700;2022-11-14T17:16:47;11.60;99.90
25512;DHT22;13414;44.534;18.700;2022-11-14T17:19:33;11.50;99.90
25512;DHT22;13414;44.534;18.700;2022-11-14T17:22:20;11.50;99.90
25512;DHT22;13414;44.534;18.700;2022-11-14T17:25:07;11.40;99.90
25512;DHT22;13414;44.534;18.700;2022-11-14T17:27:53;11.30;99.90
25512;DHT22;13414;44.534;18.700;2022-11-14T17:30:40;11.30;99.90
25512;DHT22;13414;44.534;18.700;2022-11-14T17:33:25;11.30;99.90
25512;DHT22;13414;44.534;18.700;2022-11-14T17:36:11;11.20;99.90
25512;DHT22;13414;44.534;18.700;2022-11-14T17:38:59;11.20;99.90
25512;DHT22;13414;44.534;18.700;2022-11-14T17:41:45;11.10;99.90
25512;DHT22;13414;44.534;18.700;2022-11-14T17:44:30;11.10;99.90
25512;DHT22;13414;44.534;18.700;2022-11-14T17:47:16;11.00;99.90
25512;DHT22;13414;44.534;18.700;2022-11-14T17:50:03;11.10;99.90
25512;DHT22;13414;44.534;18.700;2022-11-14T17:52:49;11.00;99.90
25512;DHT22;13414;44.534;18.700;2022-11-14T17:55:36;10.90;99.90
25512;DHT22;13414;44.534;18.700;2022-11-14T17:58:23;10.90;99.90
25512;DHT22;13414;44.534;18.700;2022-11-14T18:01:09;10.90;99.90
25512;DHT22;13414;44.534;18.700;2022-11-14T18:03:56;10.90;99.90
25512;DHT22;13414;44.534;18.700;2022-11-14T18:06:41;10.80;99.90
25512;DHT22;13414;44.534;18.700;2022-11-14T18:09:28;10.70;99.90
25512;DHT22;13414;44.534;18.700;2022-11-14T18:12:17;10.70;99.90
25512;DHT22;13414;44.534;18.700;2022-11-14T18:15:04;10.60;99.90